sensor_id;sensor_type;location;lat;lon;timestamp;temperature;humidity
57857;DHT22;43683;48.650;9.290;2022-10-30T00:01:53;11.70;93.90
57857;DHT22;43683;48.650;9.290;2022-10-30T00:04:18;11.80;93.80
57857;DHT22;43683;48.650;9.290;2022-10-30T00:06:44;11.90;93.70
57857;DHT22;43683;48.650;9.290;2022-10-30T00:09:09;12.10;93.80
57857;DHT22;43683;48.650;9.290;2022-10-30T00:11:35;12.10;93.70
57857;DHT22;43683;48.650;9.290;2022-10-30T00:14:01;12.20;93.70
57857;DHT22;43683;48.650;9.290;2022-10-30T00:16:26;12.20;93.70
57857;DHT22;43683;48.650;9.290;2022-10-30T00:18:52;12.30;93.80
57857;DHT22;43683;48.650;9.290;2022-10-30T00:21:17;12.20;93.90
57857;DHT22;43683;48.650;9.290;2022-10-30T00:23:47;12.20;94.00
57857;DHT22;43683;48.650;9.290;2022-10-30T00:26:14;12.20;94.10
57857;DHT22;43683;48.650;9.290;2022-10-30T00:28:39;12.20;94.10
57857;DHT22;43683;48.650;9.290;2022-10-30T00:31:05;12.10;94.20
57857;DHT22;43683;48.650;9.290;2022-10-30T00:33:31;12.10;94.20
57857;DHT22;43683;48.650;9.290;2022-10-30T00:35:57;12.00;94.30
57857;DHT22;43683;48.650;9.290;2022-10-30T00:38:23;12.00;94.40
57857;DHT22;43683;48.650;9.290;2022-10-30T00:40:48;12.00;94.40
57857;DHT22;43683;48.650;9.290;2022-10-30T00:43:50;12.00;94.40
57857;DHT22;43683;48.650;9.290;2022-10-30T00:46:34;12.00;94.40
57857;DHT22;43683;48.650;9.290;2022-10-30T00:49:12;12.00;94.30
57857;DHT22;43683;48.650;9.290;2022-10-30T00:51:41;12.00;94.30
57857;DHT22;43683;48.650;9.290;2022-10-30T00:54:07;12.00;94.30
57857;DHT22;43683;48.650;9.290;2022-10-30T00:56:33;12.10;94.30
57857;DHT22;43683;48.650;9.290;2022-10-30T00:59:08;12.10;94.30
57857;DHT22;43683;48.650;9.290;2022-10-30T01:01:37;12.10;94.30
57857;DHT22;43683;48.650;9.290;2022-10-30T01:04:05;12.00;94.30
57857;DHT22;43683;48.650;9.290;2022-10-30T01:06:34;12.00;94.30
57857;DHT22;43683;48.650;9.290;2022-10-30T01:09:00;12.00;94.40
57857;DHT22;43683;48.650;9.290;2022-10-30T01:11:26;11.90;94.40
57857;DHT22;43683;48.650;9.290;2022-10-30T01:13:53;11.90;94.40
57857;DHT22;43683;48.650;9.290;2022-10-30T01:24:51;11.90;94.30
57857;DHT22;43683;48.650;9.290;2022-10-30T01:30:21;11.80;94.30
57857;DHT22;43683;48.650;9.290;2022-10-30T01:35:23;11.70;94.60
57857;DHT22;43683;48.650;9.290;2022-10-30T01:38:00;11.70;94.30
57857;DHT22;43683;48.650;9.290;2022-10-30T01:40:27;11.60;94.30
57857;DHT22;43683;48.650;9.290;2022-10-30T01:42:55;11.50;94.30
57857;DHT22;43683;48.650;9.290;2022-10-30T01:45:38;11.50;94.30
57857;DHT22;43683;48.650;9.290;2022-10-30T01:53:40;11.40;94.40
57857;DHT22;43683;48.650;9.290;2022-10-30T01:56:31;11.40;94.40
57857;DHT22;43683;48.650;9.290;2022-10-30T01:59:14;11.30;94.40
57857;DHT22;43683;48.650;9.290;2022-10-30T02:01:41;11.20;94.40
57857;DHT22;43683;48.650;9.290;2022-10-30T02:04:08;11.20;94.40
57857;DHT22;43683;48.650;9.290;2022-10-30T02:06:36;11.20;94.40
57857;DHT22;43683;48.650;9.290;2022-10-30T02:09:02;11.10;94.40
57857;DHT22;43683;48.650;9.290;2022-10-30T02:11:28;11.10;94.40
57857;DHT22;43683;48.650;9.290;2022-10-30T02:13:55;11.10;94.30
57857;DHT22;43683;48.650;9.290;2022-10-30T02:16:22;11.10;94.40
57857;DHT22;43683;48.650;9.290;2022-10-30T02:18:47;11.10;94.40
57857;DHT22;43683;48.650;9.290;2022-10-30T02:21:13;11.10;94.30
57857;DHT22;43683;48.650;9.290;2022-10-30T02:23:39;11.10;94.30
57857;DHT22;43683;48.650;9.290;2022-10-30T02:26:05;11.10;94.30
57857;DHT22;43683;48.650;9.290;2022-10-30T02:28:30;11.10;94.40
57857;DHT22;43683;48.650;9.290;2022-10-30T02:30:56;11.10;94.30
57857;DHT22;43683;48.650;9.290;2022-10-30T02:33:22;11.10;94.40
57857;DHT22;43683;48.650;9.290;2022-10-30T02:35:49;11.10;94.40
57857;DHT22;43683;48.650;9.290;2022-10-30T02:38:14;11.10;94.40
57857;DHT22;43683;48.650;9.290;2022-10-30T02:40:40;11.10;94.30
57857;DHT22;43683;48.650;9.290;2022-10-30T02:43:05;11.10;94.30
57857;DHT22;43683;48.650;9.290;2022-10-30T02:45:31;11.10;94.30
57857;DHT22;43683;48.650;9.290;2022-10-30T02:47:58;11.10;94.30
57857;DHT22;43683;48.650;9.290;2022-10-30T02:50:24;11.10;94.20
57857;DHT22;43683;48.650;9.290;2022-10-30T02:52:50;11.10;94.20
57857;DHT22;43683;48.650;9.290;2022-10-30T02:55:15;11.10;94.20
57857;DHT22;43683;48.650;9.290;2022-10-30T02:57:41;11.20;94.20
57857;DHT22;43683;48.650;9.290;2022-10-30T03:00:07;11.20;94.20
57857;DHT22;43683;48.650;9.290;2022-10-30T03:02:32;11.20;94.20
57857;DHT22;43683;48.650;9.290;2022-10-30T03:04:58;11.20;94.20
57857;DHT22;43683;48.650;9.290;2022-10-30T03:07:23;11.30;94.20
57857;DHT22;43683;48.650;9.290;2022-10-30T03:09:49;11.30;94.20
57857;DHT22;43683;48.650;9.290;2022-10-30T03:12:16;11.30;94.20
57857;DHT22;43683;48.650;9.290;2022-10-30T03:14:42;11.20;94.20
57857;DHT22;43683;48.650;9.290;2022-10-30T03:17:07;11.20;94.20
57857;DHT22;43683;48.650;9.290;2022-10-30T03:19:33;11.20;94.20
57857;DHT22;43683;48.650;9.290;2022-10-30T03:21:59;11.10;94.30
57857;DHT22;43683;48.650;9.290;2022-10-30T03:24:25;11.10;94.30
57857;DHT22;43683;48.650;9.290;2022-10-30T03:26:50;11.00;94.40
57857;DHT22;43683;48.650;9.290;2022-10-30T03:29:16;11.00;94.40
57857;DHT22;43683;48.650;9.290;2022-10-30T03:31:41;11.00;94.50
57857;DHT22;43683;48.650;9.290;2022-10-30T03:34:07;10.90;94.50
57857;DHT22;43683;48.650;9.290;2022-10-30T03:36:32;10.90;94.50
57857;DHT22;43683;48.650;9.290;2022-10-30T03:38:58;10.90;94.60
57857;DHT22;43683;48.650;9.290;2022-10-30T03:41:24;10.90;94.60
57857;DHT22;43683;48.650;9.290;2022-10-30T03:43:49;10.80;94.50
57857;DHT22;43683;48.650;9.290;2022-10-30T03:46:15;10.80;94.60
57857;DHT22;43683;48.650;9.290;2022-10-30T03:48:41;10.80;94.70
57857;DHT22;43683;48.650;9.290;2022-10-30T03:51:06;10.80;94.60
57857;DHT22;43683;48.650;9.290;2022-10-30T03:53:32;10.80;94.70
57857;DHT22;43683;48.650;9.290;2022-10-30T03:56:01;10.70;94.70
57857;DHT22;43683;48.650;9.290;2022-10-30T03:58:28;10.80;94.70
57857;DHT22;43683;48.650;9.290;2022-10-30T04:00:54;10.80;94.60
57857;DHT22;43683;48.650;9.290;2022-10-30T04:03:25;10.80;94.60
57857;DHT22;43683;48.650;9.290;2022-10-30T04:05:52;10.80;94.60
57857;DHT22;43683;48.650;9.290;2022-10-30T04:08:17;10.70;94.70
57857;DHT22;43683;48.650;9.290;2022-10-30T04:10:44;10.60;94.80
57857;DHT22;43683;48.650;9.290;2022-10-30T04:13:11;10.60;94.80
57857;DHT22;43683;48.650;9.290;2022-10-30T04:15:37;10.50;94.80
57857;DHT22;43683;48.650;9.290;2022-10-30T04:18:03;10.50;94.80
57857;DHT22;43683;48.650;9.290;2022-10-30T04:20:29;10.50;94.80
57857;DHT22;43683;48.650;9.290;2022-10-30T04:22:56;10.50;94.80
57857;DHT22;43683;48.650;9.290;2022-10-30T04:25:22;10.40;94.80
57857;DHT22;43683;48.650;9.290;2022-10-30T04:27:48;10.30;94.80
57857;DHT22;43683;48.650;9.290;2022-10-30T04:30:14;10.30;95.00
57857;DHT22;43683;48.650;9.290;2022-10-30T04:32:49;10.20;95.00
57857;DHT22;43683;48.650;9.290;2022-10-30T04:35:16;10.20;95.00
57857;DHT22;43683;48.650;9.290;2022-10-30T04:37:42;10.20;95.00
57857;DHT22;43683;48.650;9.290;2022-10-30T04:40:15;10.10;94.90
57857;DHT22;43683;48.650;9.290;2022-10-30T04:42:41;10.00;95.00
57857;DHT22;43683;48.650;9.290;2022-10-30T04:45:07;10.00;95.00
57857;DHT22;43683;48.650;9.290;2022-10-30T04:47:32;9.90;95.10
57857;DHT22;43683;48.650;9.290;2022-10-30T04:49:58;9.90;95.10
57857;DHT22;43683;48.650;9.290;2022-10-30T04:52:23;9.90;95.10
57857;DHT22;43683;48.650;9.290;2022-10-30T04:54:49;9.80;95.10
57857;DHT22;43683;48.650;9.290;2022-10-30T04:57:14;9.80;95.20
57857;DHT22;43683;48.650;9.290;2022-10-30T04:59:40;9.80;95.20
57857;DHT22;43683;48.650;9.290;2022-10-30T05:02:05;9.70;95.20
57857;DHT22;43683;48.650;9.290;2022-10-30T05:04:31;9.70;95.30
57857;DHT22;43683;48.650;9.290;2022-10-30T05:06:56;9.60;95.30
57857;DHT22;43683;48.650;9.290;2022-10-30T05:09:22;9.50;95.30
57857;DHT22;43683;48.650;9.290;2022-10-30T05:11:48;9.50;95.30
57857;DHT22;43683;48.650;9.290;2022-10-30T05:14:13;9.50;95.30
57857;DHT22;43683;48.650;9.290;2022-10-30T05:16:39;9.40;95.30
57857;DHT22;43683;48.650;9.290;2022-10-30T05:19:05;9.40;95.40
57857;DHT22;43683;48.650;9.290;2022-10-30T05:21:31;9.30;95.40
57857;DHT22;43683;48.650;9.290;2022-10-30T05:23:56;9.20;95.40
57857;DHT22;43683;48.650;9.290;2022-10-30T05:26:22;9.20;95.40
57857;DHT22;43683;48.650;9.290;2022-10-30T05:28:47;9.20;95.40
57857;DHT22;43683;48.650;9.290;2022-10-30T05:31:13;9.20;95.40
57857;DHT22;43683;48.650;9.290;2022-10-30T05:33:38;9.10;95.40
57857;DHT22;43683;48.650;9.290;2022-10-30T05:36:04;9.10;95.40
57857;DHT22;43683;48.650;9.290;2022-10-30T05:38:30;9.10;95.40
57857;DHT22;43683;48.650;9.290;2022-10-30T05:40:55;9.10;95.30
57857;DHT22;43683;48.650;9.290;2022-10-30T05:43:21;9.00;95.40
57857;DHT22;43683;48.650;9.290;2022-10-30T05:45:49;9.00;95.40
57857;DHT22;43683;48.650;9.290;2022-10-30T05:48:15;9.00;95.40
57857;DHT22;43683;48.650;9.290;2022-10-30T05:50:40;9.00;95.40
57857;DHT22;43683;48.650;9.290;2022-10-30T05:53:06;9.00;95.40
57857;DHT22;43683;48.650;9.290;2022-10-30T05:55:32;9.10;95.30
57857;DHT22;43683;48.650;9.290;2022-10-30T05:58:02;9.00;95.40
57857;DHT22;43683;48.650;9.290;2022-10-30T06:00:30;9.00;95.40
57857;DHT22;43683;48.650;9.290;2022-10-30T06:03:00;9.00;95.40
57857;DHT22;43683;48.650;9.290;2022-10-30T06:05:28;9.00;95.40
57857;DHT22;43683;48.650;9.290;2022-10-30T06:07:54;8.90;95.40
57857;DHT22;43683;48.650;9.290;2022-10-30T06:10:23;8.90;95.40
57857;DHT22;43683;48.650;9.290;2022-10-30T06:12:59;8.90;95.40
57857;DHT22;43683;48.650;9.290;2022-10-30T06:15:25;8.90;95.50
57857;DHT22;43683;48.650;9.290;2022-10-30T06:17:51;8.90;95.50
57857;DHT22;43683;48.650;9.290;2022-10-30T06:20:19;8.90;95.50
57857;DHT22;43683;48.650;9.290;2022-10-30T06:23:05;9.00;95.60
57857;DHT22;43683;48.650;9.290;2022-10-30T06:25:33;9.00;95.60
57857;DHT22;43683;48.650;9.290;2022-10-30T06:27:59;9.20;95.40
57857;DHT22;43683;48.650;9.290;2022-10-30T06:30:26;9.30;95.30
57857;DHT22;43683;48.650;9.290;2022-10-30T06:32:59;9.40;95.20
57857;DHT22;43683;48.650;9.290;2022-10-30T06:35:25;9.50;95.30
57857;DHT22;43683;48.650;9.290;2022-10-30T06:37:51;9.60;95.20
57857;DHT22;43683;48.650;9.290;2022-10-30T06:40:18;9.70;95.20
57857;DHT22;43683;48.650;9.290;2022-10-30T06:42:49;9.80;95.10
57857;DHT22;43683;48.650;9.290;2022-10-30T06:45:16;9.80;95.10
57857;DHT22;43683;48.650;9.290;2022-10-30T06:47:42;9.90;95.10
57857;DHT22;43683;48.650;9.290;2022-10-30T06:50:11;10.00;95.20
57857;DHT22;43683;48.650;9.290;2022-10-30T06:52:37;10.10;95.20
57857;DHT22;43683;48.650;9.290;2022-10-30T06:55:05;10.20;95.20
57857;DHT22;43683;48.650;9.290;2022-10-30T06:57:31;10.20;95.20
57857;DHT22;43683;48.650;9.290;2022-10-30T06:59:56;10.30;95.20
57857;DHT22;43683;48.650;9.290;2022-10-30T07:02:22;10.50;95.30
57857;DHT22;43683;48.650;9.290;2022-10-30T07:04:47;10.50;95.40
57857;DHT22;43683;48.650;9.290;2022-10-30T07:07:14;10.70;95.50
57857;DHT22;43683;48.650;9.290;2022-10-30T07:09:40;10.90;95.60
57857;DHT22;43683;48.650;9.290;2022-10-30T07:12:06;11.10;95.70
57857;DHT22;43683;48.650;9.290;2022-10-30T07:14:32;11.20;95.80
57857;DHT22;43683;48.650;9.290;2022-10-30T07:16:57;11.40;95.80
57857;DHT22;43683;48.650;9.290;2022-10-30T07:19:23;11.60;95.80
57857;DHT22;43683;48.650;9.290;2022-10-30T07:21:49;11.80;95.80
57857;DHT22;43683;48.650;9.290;2022-10-30T07:24:14;12.00;95.70
57857;DHT22;43683;48.650;9.290;2022-10-30T07:26:40;12.10;95.60
57857;DHT22;43683;48.650;9.290;2022-10-30T07:29:06;12.20;95.40
57857;DHT22;43683;48.650;9.290;2022-10-30T07:31:32;12.30;95.40
57857;DHT22;43683;48.650;9.290;2022-10-30T07:33:57;12.40;95.20
57857;DHT22;43683;48.650;9.290;2022-10-30T07:36:23;12.50;95.10
57857;DHT22;43683;48.650;9.290;2022-10-30T07:38:49;12.60;95.00
57857;DHT22;43683;48.650;9.290;2022-10-30T07:41:19;12.70;95.00
57857;DHT22;43683;48.650;9.290;2022-10-30T07:43:45;12.80;94.90
57857;DHT22;43683;48.650;9.290;2022-10-30T07:46:12;12.80;94.80
57857;DHT22;43683;48.650;9.290;2022-10-30T07:48:37;12.80;94.70
57857;DHT22;43683;48.650;9.290;2022-10-30T07:51:03;12.80;94.70
57857;DHT22;43683;48.650;9.290;2022-10-30T07:53:29;12.80;94.80
57857;DHT22;43683;48.650;9.290;2022-10-30T07:55:55;12.90;94.60
57857;DHT22;43683;48.650;9.290;2022-10-30T07:58:20;13.00;94.60
57857;DHT22;43683;48.650;9.290;2022-10-30T08:00:46;13.20;94.50
57857;DHT22;43683;48.650;9.290;2022-10-30T08:03:12;13.40;94.40
57857;DHT22;43683;48.650;9.290;2022-10-30T08:05:38;13.60;94.30
57857;DHT22;43683;48.650;9.290;2022-10-30T08:08:04;13.80;94.20
57857;DHT22;43683;48.650;9.290;2022-10-30T08:10:30;14.00;94.00
57857;DHT22;43683;48.650;9.290;2022-10-30T08:12:55;14.20;93.80
57857;DHT22;43683;48.650;9.290;2022-10-30T08:15:21;14.30;93.70
57857;DHT22;43683;48.650;9.290;2022-10-30T08:17:48;14.50;93.50
57857;DHT22;43683;48.650;9.290;2022-10-30T08:20:17;14.70;93.40
57857;DHT22;43683;48.650;9.290;2022-10-30T08:22:53;14.90;93.30
57857;DHT22;43683;48.650;9.290;2022-10-30T08:25:22;15.10;92.80
57857;DHT22;43683;48.650;9.290;2022-10-30T08:27:58;15.20;92.70
57857;DHT22;43683;48.650;9.290;2022-10-30T08:30:27;15.30;92.50
57857;DHT22;43683;48.650;9.290;2022-10-30T08:33:01;15.50;92.30
57857;DHT22;43683;48.650;9.290;2022-10-30T08:35:27;15.60;91.90
57857;DHT22;43683;48.650;9.290;2022-10-30T08:37:56;15.80;91.80
57857;DHT22;43683;48.650;9.290;2022-10-30T08:40:26;16.00;91.40
57857;DHT22;43683;48.650;9.290;2022-10-30T08:42:53;16.00;91.20
57857;DHT22;43683;48.650;9.290;2022-10-30T08:45:19;16.10;90.90
57857;DHT22;43683;48.650;9.290;2022-10-30T08:47:45;16.30;90.90
57857;DHT22;43683;48.650;9.290;2022-10-30T08:50:10;16.50;90.70
57857;DHT22;43683;48.650;9.290;2022-10-30T08:52:36;16.70;90.50
57857;DHT22;43683;48.650;9.290;2022-10-30T08:55:02;16.80;90.20
57857;DHT22;43683;48.650;9.290;2022-10-30T08:57:28;16.80;90.00
57857;DHT22;43683;48.650;9.290;2022-10-30T08:59:53;16.90;89.60
57857;DHT22;43683;48.650;9.290;2022-10-30T09:02:19;17.10;89.20
57857;DHT22;43683;48.650;9.290;2022-10-30T09:04:44;17.40;88.70
57857;DHT22;43683;48.650;9.290;2022-10-30T09:07:10;17.60;88.20
57857;DHT22;43683;48.650;9.290;2022-10-30T09:09:35;17.90;87.40
57857;DHT22;43683;48.650;9.290;2022-10-30T09:12:01;18.20;86.60
57857;DHT22;43683;48.650;9.290;2022-10-30T09:14:26;18.40;86.10
57857;DHT22;43683;48.650;9.290;2022-10-30T09:16:53;18.50;85.50
57857;DHT22;43683;48.650;9.290;2022-10-30T09:19:19;18.60;84.60
57857;DHT22;43683;48.650;9.290;2022-10-30T09:21:44;18.80;84.20
57857;DHT22;43683;48.650;9.290;2022-10-30T09:24:10;18.90;83.40
57857;DHT22;43683;48.650;9.290;2022-10-30T09:26:35;19.20;82.90
57857;DHT22;43683;48.650;9.290;2022-10-30T09:29:01;19.40;82.30
57857;DHT22;43683;48.650;9.290;2022-10-30T09:31:27;19.70;81.80
57857;DHT22;43683;48.650;9.290;2022-10-30T09:33:53;20.00;81.50
57857;DHT22;43683;48.650;9.290;2022-10-30T09:36:18;20.30;80.70
57857;DHT22;43683;48.650;9.290;2022-10-30T09:38:44;20.40;80.00
57857;DHT22;43683;48.650;9.290;2022-10-30T09:43:57;20.70;77.70
57857;DHT22;43683;48.650;9.290;2022-10-30T09:53:18;20.80;77.10
57857;DHT22;43683;48.650;9.290;2022-10-30T10:01:42;21.30;74.30
57857;DHT22;43683;48.650;9.290;2022-10-30T10:07:06;21.90;72.80
57857;DHT22;43683;48.650;9.290;2022-10-30T10:09:34;22.00;72.60
57857;DHT22;43683;48.650;9.290;2022-10-30T10:12:10;22.40;72.40
57857;DHT22;43683;48.650;9.290;2022-10-30T10:14:44;22.60;70.90
57857;DHT22;43683;48.650;9.290;2022-10-30T10:17:14;22.60;70.00
57857;DHT22;43683;48.650;9.290;2022-10-30T10:19:51;22.70;70.00
57857;DHT22;43683;48.650;9.290;2022-10-30T10:25:33;22.70;69.10
57857;DHT22;43683;48.650;9.290;2022-10-30T10:33:44;23.30;68.30
57857;DHT22;43683;48.650;9.290;2022-10-30T10:36:19;23.60;67.50
57857;DHT22;43683;48.650;9.290;2022-10-30T10:44:48;24.10;65.40
57857;DHT22;43683;48.650;9.290;2022-10-30T10:50:17;24.30;64.20
57857;DHT22;43683;48.650;9.290;2022-10-30T10:53:14;24.40;63.90
57857;DHT22;43683;48.650;9.290;2022-10-30T10:55:42;24.50;63.40
57857;DHT22;43683;48.650;9.290;2022-10-30T10:58:38;24.60;65.10
57857;DHT22;43683;48.650;9.290;2022-10-30T11:01:14;24.70;63.50
57857;DHT22;43683;48.650;9.290;2022-10-30T11:03:57;24.80;62.90
57857;DHT22;43683;48.650;9.290;2022-10-30T11:06:36;24.80;62.10
57857;DHT22;43683;48.650;9.290;2022-10-30T11:09:32;24.80;61.70
57857;DHT22;43683;48.650;9.290;2022-10-30T11:11:58;24.90;62.00
57857;DHT22;43683;48.650;9.290;2022-10-30T11:14:27;25.00;61.30
57857;DHT22;43683;48.650;9.290;2022-10-30T11:17:18;25.00;61.10
57857;DHT22;43683;48.650;9.290;2022-10-30T11:19:47;25.10;60.40
57857;DHT22;43683;48.650;9.290;2022-10-30T11:24:47;25.20;60.10
57857;DHT22;43683;48.650;9.290;2022-10-30T11:29:51;25.40;59.00
57857;DHT22;43683;48.650;9.290;2022-10-30T11:32:19;25.50;58.60
57857;DHT22;43683;48.650;9.290;2022-10-30T11:35:17;25.50;58.40
57857;DHT22;43683;48.650;9.290;2022-10-30T11:37:46;25.40;58.30
57857;DHT22;43683;48.650;9.290;2022-10-30T11:42:45;25.00;58.80
57857;DHT22;43683;48.650;9.290;2022-10-30T11:45:35;25.00;58.50
57857;DHT22;43683;48.650;9.290;2022-10-30T11:48:08;24.90;58.00
57857;DHT22;43683;48.650;9.290;2022-10-30T11:50:34;24.80;57.80
57857;DHT22;43683;48.650;9.290;2022-10-30T11:53:08;24.60;58.20
57857;DHT22;43683;48.650;9.290;2022-10-30T11:55:39;24.50;59.10
57857;DHT22;43683;48.650;9.290;2022-10-30T11:58:06;24.40;58.20
57857;DHT22;43683;48.650;9.290;2022-10-30T12:00:37;24.40;58.40
57857;DHT22;43683;48.650;9.290;2022-10-30T12:03:27;24.40;58.20
57857;DHT22;43683;48.650;9.290;2022-10-30T12:06:06;24.40;58.00
57857;DHT22;43683;48.650;9.290;2022-10-30T12:08:32;24.30;58.10
57857;DHT22;43683;48.650;9.290;2022-10-30T12:11:00;24.20;58.40
57857;DHT22;43683;48.650;9.290;2022-10-30T12:13:27;24.10;58.30
57857;DHT22;43683;48.650;9.290;2022-10-30T12:16:15;24.00;57.80
57857;DHT22;43683;48.650;9.290;2022-10-30T12:18:58;23.90;57.40
57857;DHT22;43683;48.650;9.290;2022-10-30T12:21:26;23.90;57.20
57857;DHT22;43683;48.650;9.290;2022-10-30T12:23:56;24.00;57.10
57857;DHT22;43683;48.650;9.290;2022-10-30T12:26:22;24.10;56.50
57857;DHT22;43683;48.650;9.290;2022-10-30T12:28:56;24.30;56.20
57857;DHT22;43683;48.650;9.290;2022-10-30T12:34:07;24.60;55.50
57857;DHT22;43683;48.650;9.290;2022-10-30T12:36:43;24.70;55.30
57857;DHT22;43683;48.650;9.290;2022-10-30T12:39:23;24.90;54.80
57857;DHT22;43683;48.650;9.290;2022-10-30T12:41:55;25.10;54.40
57857;DHT22;43683;48.650;9.290;2022-10-30T12:44:28;25.30;54.70
57857;DHT22;43683;48.650;9.290;2022-10-30T12:49:50;25.50;54.50
57857;DHT22;43683;48.650;9.290;2022-10-30T12:58:31;25.40;55.00
57857;DHT22;43683;48.650;9.290;2022-10-30T13:01:04;25.40;55.20
57857;DHT22;43683;48.650;9.290;2022-10-30T13:03:42;25.40;55.40
57857;DHT22;43683;48.650;9.290;2022-10-30T13:06:15;25.60;54.80
57857;DHT22;43683;48.650;9.290;2022-10-30T13:11:40;25.80;54.20
57857;DHT22;43683;48.650;9.290;2022-10-30T13:14:19;25.80;54.20
57857;DHT22;43683;48.650;9.290;2022-10-30T13:16:46;25.80;54.60
57857;DHT22;43683;48.650;9.290;2022-10-30T13:19:12;25.80;55.50
57857;DHT22;43683;48.650;9.290;2022-10-30T13:21:54;25.80;55.80
57857;DHT22;43683;48.650;9.290;2022-10-30T13:30:10;25.70;55.80
57857;DHT22;43683;48.650;9.290;2022-10-30T13:37:42;25.40;56.00
57857;DHT22;43683;48.650;9.290;2022-10-30T13:45:54;25.40;56.30
57857;DHT22;43683;48.650;9.290;2022-10-30T13:51:36;25.20;56.50
57857;DHT22;43683;48.650;9.290;2022-10-30T13:56:35;25.50;55.90
57857;DHT22;43683;48.650;9.290;2022-10-30T13:59:27;25.70;55.80
57857;DHT22;43683;48.650;9.290;2022-10-30T14:02:31;25.70;55.20
57857;DHT22;43683;48.650;9.290;2022-10-30T14:10:58;25.70;55.40
57857;DHT22;43683;48.650;9.290;2022-10-30T14:13:28;25.60;55.90
57857;DHT22;43683;48.650;9.290;2022-10-30T14:19:19;25.10;56.80
57857;DHT22;43683;48.650;9.290;2022-10-30T14:21:54;24.90;57.30
57857;DHT22;43683;48.650;9.290;2022-10-30T14:24:29;24.80;57.30
57857;DHT22;43683;48.650;9.290;2022-10-30T14:39:49;23.60;59.40
57857;DHT22;43683;48.650;9.290;2022-10-30T14:44:51;23.00;60.90
57857;DHT22;43683;48.650;9.290;2022-10-30T14:47:35;22.70;61.60
57857;DHT22;43683;48.650;9.290;2022-10-30T14:55:34;21.80;64.30
57857;DHT22;43683;48.650;9.290;2022-10-30T15:02:57;21.10;65.90
57857;DHT22;43683;48.650;9.290;2022-10-30T15:08:40;20.70;67.00
57857;DHT22;43683;48.650;9.290;2022-10-30T15:13:53;20.20;68.10
57857;DHT22;43683;48.650;9.290;2022-10-30T15:16:21;20.00;68.40
57857;DHT22;43683;48.650;9.290;2022-10-30T15:18:54;19.70;68.90
57857;DHT22;43683;48.650;9.290;2022-10-30T15:21:22;19.50;69.50
57857;DHT22;43683;48.650;9.290;2022-10-30T15:23:51;19.30;69.60
57857;DHT22;43683;48.650;9.290;2022-10-30T15:26:22;19.20;70.00
57857;DHT22;43683;48.650;9.290;2022-10-30T15:28:51;19.00;70.50
57857;DHT22;43683;48.650;9.290;2022-10-30T15:31:22;18.90;70.70
57857;DHT22;43683;48.650;9.290;2022-10-30T15:33:48;18.70;70.30
57857;DHT22;43683;48.650;9.290;2022-10-30T15:36:18;18.50;70.70
57857;DHT22;43683;48.650;9.290;2022-10-30T15:38:44;18.40;71.50
57857;DHT22;43683;48.650;9.290;2022-10-30T15:41:27;18.20;71.90
57857;DHT22;43683;48.650;9.290;2022-10-30T15:43:53;18.00;72.60
57857;DHT22;43683;48.650;9.290;2022-10-30T15:46:18;17.80;72.20
57857;DHT22;43683;48.650;9.290;2022-10-30T15:48:46;17.60;72.80
57857;DHT22;43683;48.650;9.290;2022-10-30T15:51:17;17.50;73.90
57857;DHT22;43683;48.650;9.290;2022-10-30T15:53:56;17.40;74.50
57857;DHT22;43683;48.650;9.290;2022-10-30T15:56:30;17.20;75.20
57857;DHT22;43683;48.650;9.290;2022-10-30T15:58:59;17.00;74.40
57857;DHT22;43683;48.650;9.290;2022-10-30T16:01:30;16.80;75.10
57857;DHT22;43683;48.650;9.290;2022-10-30T16:03:56;16.70;76.00
57857;DHT22;43683;48.650;9.290;2022-10-30T16:06:30;16.50;76.50
57857;DHT22;43683;48.650;9.290;2022-10-30T16:08:56;16.30;77.40
57857;DHT22;43683;48.650;9.290;2022-10-30T16:11:23;16.10;77.60
57857;DHT22;43683;48.650;9.290;2022-10-30T16:13:49;16.00;78.20
57857;DHT22;43683;48.650;9.290;2022-10-30T16:16:35;15.80;78.40
57857;DHT22;43683;48.650;9.290;2022-10-30T16:19:02;15.70;79.20
57857;DHT22;43683;48.650;9.290;2022-10-30T16:21:29;15.60;79.20
57857;DHT22;43683;48.650;9.290;2022-10-30T16:24:00;15.50;79.70
57857;DHT22;43683;48.650;9.290;2022-10-30T16:29:18;15.20;80.80
57857;DHT22;43683;48.650;9.290;2022-10-30T16:31:46;15.20;81.60
57857;DHT22;43683;48.650;9.290;2022-10-30T16:34:31;15.10;81.50
57857;DHT22;43683;48.650;9.290;2022-10-30T16:37:02;14.90;82.10
57857;DHT22;43683;48.650;9.290;2022-10-30T16:39:30;14.90;82.10
57857;DHT22;43683;48.650;9.290;2022-10-30T16:41:59;14.70;82.50
57857;DHT22;43683;48.650;9.290;2022-10-30T16:44:30;14.60;82.70
57857;DHT22;43683;48.650;9.290;2022-10-30T16:47:23;14.40;83.40
57857;DHT22;43683;48.650;9.290;2022-10-30T16:49:55;14.30;84.60
57857;DHT22;43683;48.650;9.290;2022-10-30T16:52:26;14.20;84.10
57857;DHT22;43683;48.650;9.290;2022-10-30T16:55:00;14.10;84.30
57857;DHT22;43683;48.650;9.290;2022-10-30T16:57:28;14.00;84.60
57857;DHT22;43683;48.650;9.290;2022-10-30T16:59:55;13.80;84.70
57857;DHT22;43683;48.650;9.290;2022-10-30T17:02:22;13.70;85.10
57857;DHT22;43683;48.650;9.290;2022-10-30T17:05:07;13.60;85.40
57857;DHT22;43683;48.650;9.290;2022-10-30T17:07:33;13.50;85.80
57857;DHT22;43683;48.650;9.290;2022-10-30T17:10:00;13.30;86.10
57857;DHT22;43683;48.650;9.290;2022-10-30T17:12:29;13.30;86.30
57857;DHT22;43683;48.650;9.290;2022-10-30T17:15:02;13.20;86.70
57857;DHT22;43683;48.650;9.290;2022-10-30T17:17:36;13.20;87.20
57857;DHT22;43683;48.650;9.290;2022-10-30T17:22:29;13.10;87.10
57857;DHT22;43683;48.650;9.290;2022-10-30T17:24:56;13.00;87.30
57857;DHT22;43683;48.650;9.290;2022-10-30T17:27:48;12.90;87.50
57857;DHT22;43683;48.650;9.290;2022-10-30T17:30:31;12.80;87.90
57857;DHT22;43683;48.650;9.290;2022-10-30T17:33:03;12.70;88.10
57857;DHT22;43683;48.650;9.290;2022-10-30T17:35:44;12.70;88.00
57857;DHT22;43683;48.650;9.290;2022-10-30T17:38:10;12.60;88.10
57857;DHT22;43683;48.650;9.290;2022-10-30T17:40:35;12.60;88.30
57857;DHT22;43683;48.650;9.290;2022-10-30T17:43:01;12.60;88.60
57857;DHT22;43683;48.650;9.290;2022-10-30T17:45:26;12.50;88.90
57857;DHT22;43683;48.650;9.290;2022-10-30T17:47:52;12.50;89.00
57857;DHT22;43683;48.650;9.290;2022-10-30T17:50:17;12.50;89.10
57857;DHT22;43683;48.650;9.290;2022-10-30T17:52:43;12.50;89.20
57857;DHT22;43683;48.650;9.290;2022-10-30T17:55:21;12.40;89.40
57857;DHT22;43683;48.650;9.290;2022-10-30T17:57:47;12.30;89.90
57857;DHT22;43683;48.650;9.290;2022-10-30T18:00:13;12.20;89.10
57857;DHT22;43683;48.650;9.290;2022-10-30T18:02:38;12.20;89.20
57857;DHT22;43683;48.650;9.290;2022-10-30T18:05:14;12.10;89.60
57857;DHT22;43683;48.650;9.290;2022-10-30T18:07:41;12.00;90.10
57857;DHT22;43683;48.650;9.290;2022-10-30T18:10:07;12.00;90.00
57857;DHT22;43683;48.650;9.290;2022-10-30T18:12:32;12.00;90.20